Time;durP1;ratioP1;P1;durP2;ratioP2;P2;SDS_P1;SDS_P2;PMS_P1;PMS_P2;Temp;Humidity;BMP_temperature;BMP_pressure;BME280_temperature;BME280_humidity;BME280_pressure;Samples;Min_cycle;Max_cycle;Signal;HPM_P1;HPM_P2
2022/07/30 00:00:31;;;;;;;10.82;7.82;;;;;;;;;;5152823;27;20566;-73
2022/07/30 00:02:57;;;;;;;17.73;15.80;;;;;;;;;;5142893;27;20498;-74
2022/07/30 00:05:23;;;;;;;36.35;32.45;;;;;;;;;;5146989;27;20080;-73
2022/07/30 00:07:50;;;;;;;15.02;13.73;;;;;;;;;;5150448;27;20051;-73
2022/07/30 00:10:16;;;;;;;9.00;6.43;;;;;;;;;;5153434;27;20134;-74
2022/07/30 00:12:43;;;;;;;7.75;4.70;;;;;;;;;;5151663;27;20058;-73
2022/07/30 00:15:09;;;;;;;12.23;5.07;;;;;;;;;;5151681;27;20051;-73
2022/07/30 00:17:35;;;;;;;8.48;4.90;;;;;;;;;;5153476;27;20061;-75
2022/07/30 00:20:03;;;;;;;7.20;4.22;;;;;;;;;;5153773;27;20051;-74
2022/07/30 00:22:30;;;;;;;8.77;4.90;;;;;;;;;;5155238;27;20058;-74
2022/07/30 00:24:57;;;;;;;9.07;5.32;;;;;;;;;;5155279;27;20134;-74
2022/07/30 00:27:24;;;;;;;6.43;3.90;;;;;;;;;;5160517;27;20081;-74
2022/07/30 00:29:51;;;;;;;9.95;4.53;;;;;;;;;;5147129;27;20083;-73
2022/07/30 00:32:17;;;;;;;13.55;4.40;;;;;;;;;;5142800;27;20509;-72
2022/07/30 00:34:43;;;;;;;8.93;4.38;;;;;;;;;;5155140;27;20047;-73
2022/07/30 00:37:11;;;;;;;9.10;4.90;;;;;;;;;;5153706;27;20040;-73
2022/07/30 00:39:37;;;;;;;10.98;6.43;;;;;;;;;;5153924;27;20089;-74
2022/07/30 00:42:04;;;;;;;12.20;8.00;;;;;;;;;;5149510;27;20143;-73
2022/07/30 00:44:30;;;;;;;10.73;8.85;;;;;;;;;;5134133;27;20050;-74
2022/07/30 00:46:57;;;;;;;10.68;5.07;;;;;;;;;;5141685;27;20051;-74
2022/07/30 00:49:24;;;;;;;11.25;5.20;;;;;;;;;;5153611;27;20130;-74
2022/07/30 00:51:51;;;;;;;10.48;5.28;;;;;;;;;;5151680;27;20051;-73
2022/07/30 00:54:18;;;;;;;9.15;4.68;;;;;;;;;;5150749;27;20134;-74
2022/07/30 00:56:44;;;;;;;11.48;5.95;;;;;;;;;;5153393;27;20140;-73
2022/07/30 00:59:10;;;;;;;13.30;7.30;;;;;;;;;;5151646;27;20138;-73
2022/07/30 01:01:37;;;;;;;8.00;5.38;;;;;;;;;;5152418;27;20051;-74
2022/07/30 01:04:06;;;;;;;7.65;5.18;;;;;;;;;;5152008;27;20138;-73
2022/07/30 01:06:33;;;;;;;11.15;6.68;;;;;;;;;;5153082;27;20134;-74
2022/07/30 01:08:59;;;;;;;6.97;4.60;;;;;;;;;;5152832;27;20498;-74
2022/07/30 01:11:27;;;;;;;8.95;4.90;;;;;;;;;;5151657;27;20082;-74
2022/07/30 01:13:53;;;;;;;8.68;5.97;;;;;;;;;;5151622;27;20142;-73
2022/07/30 01:16:20;;;;;;;9.10;5.65;;;;;;;;;;5150259;27;20494;-74
2022/07/30 01:21:34;;;;;;;10.35;5.00;;;;;;;;;;5149174;27;20067;-75
2022/07/30 01:24:08;;;;;;;8.25;4.93;;;;;;;;;;5152184;27;20183;-73
2022/07/30 01:26:35;;;;;;;13.32;5.15;;;;;;;;;;5152958;27;20130;-74
2022/07/30 01:29:01;;;;;;;11.63;5.40;;;;;;;;;;5152563;27;20146;-74
2022/07/30 01:31:28;;;;;;;10.63;5.38;;;;;;;;;;5145725;27;20109;-74
2022/07/30 01:33:55;;;;;;;14.48;5.05;;;;;;;;;;5149828;27;20051;-75
2022/07/30 01:36:24;;;;;;;14.40;5.65;;;;;;;;;;5152446;27;20602;-73
2022/07/30 01:38:51;;;;;;;10.70;5.50;;;;;;;;;;5141293;27;20593;-73
2022/07/30 01:41:18;;;;;;;9.38;5.57;;;;;;;;;;5153254;27;20059;-73
2022/07/30 01:43:45;;;;;;;11.63;5.70;;;;;;;;;;5152855;27;20609;-73
2022/07/30 01:46:13;;;;;;;12.73;6.32;;;;;;;;;;5150834;27;20086;-73
2022/07/30 01:48:41;;;;;;;10.70;5.57;;;;;;;;;;5150266;27;20519;-73
2022/07/30 01:51:08;;;;;;;9.07;4.88;;;;;;;;;;5142168;27;20935;-74
2022/07/30 01:53:36;;;;;;;11.93;5.82;;;;;;;;;;5144876;27;20051;-74
2022/07/30 01:56:02;;;;;;;11.57;5.57;;;;;;;;;;5154583;27;20055;-73
2022/07/30 01:58:31;;;;;;;9.68;6.25;;;;;;;;;;5156481;27;20509;-73
2022/07/30 02:00:57;;;;;;;8.75;5.15;;;;;;;;;;5154593;27;20053;-73
2022/07/30 02:03:25;;;;;;;11.32;5.80;;;;;;;;;;5155976;27;20052;-73
2022/07/30 02:05:55;;;;;;;15.70;6.00;;;;;;;;;;5153794;27;20146;-72
2022/07/30 02:08:32;;;;;;;11.82;6.10;;;;;;;;;;5154293;27;20047;-73
2022/07/30 02:11:04;;;;;;;11.93;5.85;;;;;;;;;;5155587;27;20175;-74
2022/07/30 02:13:32;;;;;;;9.93;5.82;;;;;;;;;;5155791;27;20533;-73
2022/07/30 02:16:04;;;;;;;10.05;6.03;;;;;;;;;;5154239;27;20055;-73
2022/07/30 02:18:31;;;;;;;10.57;6.13;;;;;;;;;;5155756;27;20058;-73
2022/07/30 02:21:00;;;;;;;11.35;5.10;;;;;;;;;;5147392;27;20134;-74
2022/07/30 02:23:38;;;;;;;10.63;5.85;;;;;;;;;;5155678;27;20051;-73
2022/07/30 02:26:04;;;;;;;9.25;5.38;;;;;;;;;;5153764;27;20473;-74
2022/07/30 02:28:33;;;;;;;8.40;5.63;;;;;;;;;;5154257;27;20047;-73
2022/07/30 02:31:00;;;;;;;10.50;6.05;;;;;;;;;;5154097;27;20055;-74
2022/07/30 02:33:29;;;;;;;15.48;5.88;;;;;;;;;;5152522;27;20130;-73
2022/07/30 02:35:55;;;;;;;8.68;6.28;;;;;;;;;;5153273;27;20055;-73
2022/07/30 02:38:24;;;;;;;11.07;5.93;;;;;;;;;;5155120;27;20968;-73
2022/07/30 02:40:51;;;;;;;10.48;5.55;;;;;;;;;;5155222;27;20089;-73
2022/07/30 02:43:20;;;;;;;11.63;6.57;;;;;;;;;;5154838;27;20058;-73
2022/07/30 02:45:47;;;;;;;11.70;6.13;;;;;;;;;;5154212;27;20143;-73
2022/07/30 02:48:14;;;;;;;10.45;6.25;;;;;;;;;;5155692;27;20134;-73
2022/07/30 02:51:01;;;;;;;9.52;6.35;;;;;;;;;;5140313;27;20052;-73
2022/07/30 02:53:29;;;;;;;12.48;5.70;;;;;;;;;;5153772;27;20055;-73
2022/07/30 02:55:55;;;;;;;7.25;6.32;;;;;;;;;;5153011;27;20138;-73
2022/07/30 02:58:24;;;;;;;10.63;6.60;;;;;;;;;;5154400;27;20047;-74
2022/07/30 03:00:52;;;;;;;8.80;5.35;;;;;;;;;;5154605;27;20098;-73
2022/07/30 03:03:19;;;;;;;10.45;6.13;;;;;;;;;;5153281;27;20055;-73
2022/07/30 03:05:48;;;;;;;12.98;6.30;;;;;;;;;;5150874;27;20142;-73
2022/07/30 03:08:15;;;;;;;11.30;5.90;;;;;;;;;;5154419;27;20504;-73
2022/07/30 03:10:46;;;;;;;9.88;6.28;;;;;;;;;;5153191;27;20573;-73
2022/07/30 03:13:13;;;;;;;16.27;6.55;;;;;;;;;;5155101;27;20059;-74
2022/07/30 03:15:45;;;;;;;15.77;6.57;;;;;;;;;;5154182;27;20055;-74
2022/07/30 03:18:13;;;;;;;9.65;6.05;;;;;;;;;;5154362;27;20081;-73
2022/07/30 03:20:39;;;;;;;9.77;5.82;;;;;;;;;;5152811;27;20055;-73
2022/07/30 03:23:06;;;;;;;11.38;5.97;;;;;;;;;;5155352;27;20089;-73
2022/07/30 03:25:33;;;;;;;11.32;7.03;;;;;;;;;;5152862;27;20485;-74
2022/07/30 03:28:01;;;;;;;8.80;5.53;;;;;;;;;;5147609;27;20135;-75
2022/07/30 03:30:28;;;;;;;12.55;6.13;;;;;;;;;;5142647;27;20047;-75
2022/07/30 03:32:54;;;;;;;9.02;6.18;;;;;;;;;;5144608;27;20086;-74
2022/07/30 03:35:23;;;;;;;9.77;6.32;;;;;;;;;;5149653;27;20530;-74
2022/07/30 03:37:52;;;;;;;12.07;6.82;;;;;;;;;;5154006;27;20514;-74
2022/07/30 03:40:18;;;;;;;11.32;6.30;;;;;;;;;;5154251;27;20051;-74
2022/07/30 03:42:45;;;;;;;12.52;7.20;;;;;;;;;;5152216;27;20051;-74
2022/07/30 03:45:14;;;;;;;11.27;6.10;;;;;;;;;;5142481;27;20131;-74
2022/07/30 03:47:41;;;;;;;9.75;6.18;;;;;;;;;;5137432;27;20059;-73
2022/07/30 03:50:08;;;;;;;14.10;7.05;;;;;;;;;;5151960;27;20134;-74
2022/07/30 03:52:37;;;;;;;18.65;7.35;;;;;;;;;;5153501;27;20054;-74
2022/07/30 03:55:08;;;;;;;10.75;6.35;;;;;;;;;;5152665;27;20051;-74
2022/07/30 03:57:35;;;;;;;7.65;6.68;;;;;;;;;;5148059;27;20051;-74
2022/07/30 04:00:03;;;;;;;11.25;6.68;;;;;;;;;;5144085;27;20051;-74
2022/07/30 04:02:29;;;;;;;9.00;5.95;;;;;;;;;;5152639;27;20581;-73
2022/07/30 04:04:56;;;;;;;10.68;6.57;;;;;;;;;;5153046;27;20054;-73
2022/07/30 04:07:22;;;;;;;7.80;6.75;;;;;;;;;;5153170;27;20057;-75
2022/07/30 04:09:48;;;;;;;10.75;7.90;;;;;;;;;;5154182;27;20058;-73
2022/07/30 04:12:15;;;;;;;11.95;6.57;;;;;;;;;;5155332;27;20055;-73
2022/07/30 04:14:42;;;;;;;10.45;7.15;;;;;;;;;;5155434;27;20518;-73
2022/07/30 04:17:11;;;;;;;11.55;6.85;;;;;;;;;;5143412;27;20107;-76
2022/07/30 04:19:40;;;;;;;11.50;6.88;;;;;;;;;;5160477;27;20059;-73
2022/07/30 04:22:10;;;;;;;12.35;7.57;;;;;;;;;;5162617;27;20047;-73
2022/07/30 04:24:37;;;;;;;12.68;7.57;;;;;;;;;;5164112;27;20100;-74
2022/07/30 04:27:04;;;;;;;9.40;7.18;;;;;;;;;;5156011;27;20058;-73
2022/07/30 04:29:31;;;;;;;16.02;8.40;;;;;;;;;;5152927;27;20047;-73
2022/07/30 04:31:57;;;;;;;13.55;8.50;;;;;;;;;;5152403;27;20130;-73
2022/07/30 04:34:23;;;;;;;12.20;8.45;;;;;;;;;;5151511;27;20047;-73
2022/07/30 04:36:50;;;;;;;10.70;8.27;;;;;;;;;;5153388;27;20135;-72
2022/07/30 04:39:16;;;;;;;9.20;7.20;;;;;;;;;;5151831;27;20051;-73
2022/07/30 04:41:42;;;;;;;13.27;8.95;;;;;;;;;;5151297;27;20088;-73
2022/07/30 04:44:14;;;;;;;11.88;9.70;;;;;;;;;;5149797;27;20483;-73
2022/07/30 04:46:41;;;;;;;10.98;9.55;;;;;;;;;;5151064;27;20640;-73
2022/07/30 04:49:09;;;;;;;13.98;9.77;;;;;;;;;;5151209;27;20085;-73
2022/07/30 04:51:37;;;;;;;13.35;9.75;;;;;;;;;;5153078;27;20051;-74
2022/07/30 04:54:05;;;;;;;13.02;9.77;;;;;;;;;;5151151;27;20062;-73
2022/07/30 04:56:32;;;;;;;17.70;11.30;;;;;;;;;;5150172;27;20547;-73
2022/07/30 04:59:00;;;;;;;12.02;10.32;;;;;;;;;;5139542;27;20529;-73
2022/07/30 05:01:34;;;;;;;17.10;10.07;;;;;;;;;;5151361;27;20047;-74
2022/07/30 05:04:07;;;;;;;12.40;9.68;;;;;;;;;;5150413;27;20131;-74
2022/07/30 05:06:33;;;;;;;13.65;9.85;;;;;;;;;;5147871;27;20557;-74
2022/07/30 05:09:00;;;;;;;18.67;10.77;;;;;;;;;;5152691;27;20055;-73
2022/07/30 05:11:28;;;;;;;13.15;9.98;;;;;;;;;;5152330;27;20053;-74
2022/07/30 05:13:54;;;;;;;14.35;10.63;;;;;;;;;;5146556;27;20047;-74
2022/07/30 05:16:20;;;;;;;12.63;9.68;;;;;;;;;;5151061;27;20047;-74
2022/07/30 05:18:47;;;;;;;14.02;9.68;;;;;;;;;;5153745;27;20062;-74
2022/07/30 05:21:13;;;;;;;13.52;10.15;;;;;;;;;;5156804;27;20057;-74
2022/07/30 05:23:39;;;;;;;14.85;9.52;;;;;;;;;;5136954;27;20048;-74
2022/07/30 05:26:17;;;;;;;11.93;9.07;;;;;;;;;;5143199;27;20058;-74
2022/07/30 05:28:44;;;;;;;11.40;8.75;;;;;;;;;;5155065;27;20583;-74
2022/07/30 05:31:17;;;;;;;10.35;9.10;;;;;;;;;;5152969;27;20514;-75
2022/07/30 05:33:43;;;;;;;14.52;8.98;;;;;;;;;;5155818;27;20047;-74
2022/07/30 05:36:10;;;;;;;14.27;9.35;;;;;;;;;;5155119;27;20554;-75
2022/07/30 05:38:36;;;;;;;13.93;9.73;;;;;;;;;;5154525;27;20057;-74
2022/07/30 05:41:02;;;;;;;12.60;9.45;;;;;;;;;;5137351;27;20051;-73
2022/07/30 05:43:44;;;;;;;16.35;9.40;;;;;;;;;;5155143;27;20051;-75
2022/07/30 05:46:11;;;;;;;11.88;9.27;;;;;;;;;;5156127;27;20051;-74
2022/07/30 05:48:38;;;;;;;12.63;8.43;;;;;;;;;;5156892;27;20253;-74
2022/07/30 05:51:04;;;;;;;12.25;8.75;;;;;;;;;;5154435;27;20066;-73
2022/07/30 05:53:31;;;;;;;10.45;8.25;;;;;;;;;;5155910;27;20096;-75
2022/07/30 05:55:57;;;;;;;12.43;9.38;;;;;;;;;;5153369;27;20081;-75
2022/07/30 05:58:24;;;;;;;12.70;9.07;;;;;;;;;;5155716;27;20054;-74
2022/07/30 06:00:50;;;;;;;9.98;8.13;;;;;;;;;;5151793;27;20047;-75
2022/07/30 06:03:16;;;;;;;12.57;8.13;;;;;;;;;;5155245;27;20517;-75
2022/07/30 06:05:46;;;;;;;10.13;6.97;;;;;;;;;;5154569;27;20061;-74
2022/07/30 06:08:12;;;;;;;10.20;7.88;;;;;;;;;;5156469;27;20047;-76
2022/07/30 06:10:39;;;;;;;10.25;7.30;;;;;;;;;;5154358;27;20134;-76
2022/07/30 06:13:05;;;;;;;10.73;6.57;;;;;;;;;;5154802;27;20047;-77
2022/07/30 06:15:31;;;;;;;11.55;7.32;;;;;;;;;;5155342;27;20051;-75
2022/07/30 06:17:58;;;;;;;14.88;7.65;;;;;;;;;;5152466;27;20051;-75
2022/07/30 06:20:27;;;;;;;13.57;7.50;;;;;;;;;;5150562;27;20154;-76
2022/07/30 06:22:54;;;;;;;9.75;6.47;;;;;;;;;;5143981;27;20571;-75
2022/07/30 06:25:20;;;;;;;10.93;6.20;;;;;;;;;;5145250;27;20056;-76
2022/07/30 06:27:46;;;;;;;9.93;5.78;;;;;;;;;;5135391;27;20557;-76
2022/07/30 06:30:13;;;;;;;13.38;6.07;;;;;;;;;;5141173;27;20143;-76
2022/07/30 06:32:39;;;;;;;9.32;5.05;;;;;;;;;;5153838;27;20058;-74
2022/07/30 06:35:06;;;;;;;10.48;5.45;;;;;;;;;;5151293;27;20052;-76
2022/07/30 06:37:32;;;;;;;8.93;5.00;;;;;;;;;;5135031;27;20522;-75
2022/07/30 06:40:18;;;;;;;8.52;4.85;;;;;;;;;;5134651;27;20475;-76
2022/07/30 06:42:45;;;;;;;13.80;5.00;;;;;;;;;;5147077;27;20565;-76
2022/07/30 06:45:11;;;;;;;7.82;4.22;;;;;;;;;;5142816;27;20099;-76
2022/07/30 06:47:37;;;;;;;7.55;4.60;;;;;;;;;;5153577;27;20055;-76
2022/07/30 06:50:04;;;;;;;10.70;4.88;;;;;;;;;;5145118;27;20482;-75
2022/07/30 06:52:30;;;;;;;8.43;4.15;;;;;;;;;;5150739;27;20051;-76
2022/07/30 06:54:56;;;;;;;10.23;3.97;;;;;;;;;;5150607;27;20130;-75
2022/07/30 06:57:23;;;;;;;5.63;3.90;;;;;;;;;;5134697;27;20499;-76
2022/07/30 06:59:49;;;;;;;17.88;3.30;;;;;;;;;;5153415;27;20051;-74
2022/07/30 07:02:22;;;;;;;6.97;3.20;;;;;;;;;;5154362;27;20054;-73
2022/07/30 07:04:49;;;;;;;6.30;2.67;;;;;;;;;;5142537;27;20047;-72
2022/07/30 07:07:15;;;;;;;8.20;2.80;;;;;;;;;;5145362;27;20611;-73
2022/07/30 07:10:02;;;;;;;5.30;3.10;;;;;;;;;;5154314;27;20054;-71
2022/07/30 07:12:28;;;;;;;8.10;2.95;;;;;;;;;;5145844;27;20139;-73
2022/07/30 07:14:56;;;;;;;13.18;3.25;;;;;;;;;;5148566;27;20051;-72
2022/07/30 07:17:22;;;;;;;7.25;2.80;;;;;;;;;;5150956;27;20043;-73
2022/07/30 07:19:49;;;;;;;7.70;2.92;;;;;;;;;;5151556;27;20059;-72
2022/07/30 07:22:25;;;;;;;8.23;3.03;;;;;;;;;;5134420;27;20191;-73
2022/07/30 07:24:52;;;;;;;11.93;3.50;;;;;;;;;;5135937;27;21219;-73
2022/07/30 07:27:18;;;;;;;12.90;3.17;;;;;;;;;;5154411;27;20551;-74
2022/07/30 07:29:44;;;;;;;8.90;2.60;;;;;;;;;;5154285;27;20572;-72
2022/07/30 07:32:31;;;;;;;8.32;3.25;;;;;;;;;;5133723;27;20486;-73
2022/07/30 07:34:57;;;;;;;5.25;2.30;;;;;;;;;;5140801;27;20061;-70
2022/07/30 07:37:23;;;;;;;4.55;2.53;;;;;;;;;;5153273;27;20402;-72
2022/07/30 07:39:50;;;;;;;5.93;2.78;;;;;;;;;;5133460;27;20634;-73
2022/07/30 07:42:16;;;;;;;5.50;2.67;;;;;;;;;;5132587;27;20507;-73
2022/07/30 07:44:42;;;;;;;4.50;2.42;;;;;;;;;;5135033;27;20044;-73
2022/07/30 07:47:09;;;;;;;6.55;2.40;;;;;;;;;;5154412;27;20047;-73
2022/07/30 07:49:35;;;;;;;4.50;2.30;;;;;;;;;;5154264;27;20047;-73
2022/07/30 07:52:01;;;;;;;6.03;3.30;;;;;;;;;;5153110;27;20486;-73
2022/07/30 07:54:27;;;;;;;4.15;2.42;;;;;;;;;;5152240;27;20051;-73
2022/07/30 07:56:55;;;;;;;7.63;2.42;;;;;;;;;;5139421;27;20047;-71
2022/07/30 07:59:22;;;;;;;3.22;2.13;;;;;;;;;;5151110;27;20055;-72
2022/07/30 08:01:58;;;;;;;7.35;2.80;;;;;;;;;;5144794;27;20062;-71
2022/07/30 08:04:29;;;;;;;7.35;2.47;;;;;;;;;;5155577;27;20100;-72
2022/07/30 08:06:55;;;;;;;10.82;2.35;;;;;;;;;;5155924;27;20448;-72
2022/07/30 08:09:22;;;;;;;7.35;2.97;;;;;;;;;;5155071;27;20142;-72
2022/07/30 08:11:48;;;;;;;3.15;2.47;;;;;;;;;;5160245;27;20047;-72
2022/07/30 08:14:14;;;;;;;13.70;2.88;;;;;;;;;;5152504;27;20136;-72
2022/07/30 08:16:40;;;;;;;3.97;2.40;;;;;;;;;;5147081;27;20048;-71
2022/07/30 08:19:07;;;;;;;6.72;2.72;;;;;;;;;;5152426;27;20065;-72
2022/07/30 08:21:34;;;;;;;5.43;2.55;;;;;;;;;;5152384;27;20063;-72
2022/07/30 08:24:00;;;;;;;5.60;2.28;;;;;;;;;;5148325;27;20467;-72
2022/07/30 08:26:26;;;;;;;8.52;2.50;;;;;;;;;;5148575;27;20055;-71
2022/07/30 08:28:53;;;;;;;3.92;2.28;;;;;;;;;;5148923;27;20068;-72
2022/07/30 08:31:19;;;;;;;4.93;2.25;;;;;;;;;;5148191;27;20143;-71
2022/07/30 08:33:46;;;;;;;6.53;2.35;;;;;;;;;;5149246;27;20057;-72
2022/07/30 08:36:12;;;;;;;7.03;2.35;;;;;;;;;;5150801;27;20162;-73
2022/07/30 08:38:38;;;;;;;5.32;2.80;;;;;;;;;;5153850;27;20058;-72
2022/07/30 08:41:06;;;;;;;5.13;2.13;;;;;;;;;;5152724;27;20141;-72
2022/07/30 08:43:33;;;;;;;8.50;2.50;;;;;;;;;;5153348;27;20052;-72
2022/07/30 08:46:01;;;;;;;6.85;2.03;;;;;;;;;;5151584;27;20057;-72
2022/07/30 08:48:27;;;;;;;4.68;2.58;;;;;;;;;;5143923;27;20055;-72
2022/07/30 08:50:54;;;;;;;4.72;2.33;;;;;;;;;;5133032;27;20500;-72
2022/07/30 08:53:20;;;;;;;4.45;1.98;;;;;;;;;;5147396;27;20051;-72
2022/07/30 08:55:47;;;;;;;4.05;2.10;;;;;;;;;;5133910;27;20573;-73
2022/07/30 08:58:33;;;;;;;5.95;2.10;;;;;;;;;;5136640;27;20051;-72
2022/07/30 09:01:00;;;;;;;6.20;1.52;;;;;;;;;;5136597;27;20209;-72
2022/07/30 09:03:27;;;;;;;4.38;1.90;;;;;;;;;;5146384;27;20134;-72
2022/07/30 09:05:53;;;;;;;4.00;1.90;;;;;;;;;;5157265;27;20095;-72
2022/07/30 09:08:19;;;;;;;2.90;1.80;;;;;;;;;;5157379;27;20051;-73
2022/07/30 09:10:46;;;;;;;4.88;2.38;;;;;;;;;;5157210;27;20050;-73
2022/07/30 09:13:28;;;;;;;4.80;2.22;;;;;;;;;;5157078;27;20055;-72
2022/07/30 09:15:55;;;;;;;4.60;2.17;;;;;;;;;;5156580;27;20489;-74
2022/07/30 09:18:38;;;;;;;3.15;1.70;;;;;;;;;;5155189;27;20066;-73
2022/07/30 09:21:14;;;;;;;3.17;1.95;;;;;;;;;;5151459;27;20843;-69
2022/07/30 09:23:40;;;;;;;;;;;;;;;;;;5155449;27;20043;-73
2022/07/30 09:26:06;;;;;;;1.67;1.50;;;;;;;;;;5152397;27;42467;-73
2022/07/30 09:28:33;;;;;;;3.78;1.92;;;;;;;;;;5155912;27;20051;-72
2022/07/30 09:30:59;;;;;;;4.20;1.77;;;;;;;;;;5155975;27;20138;-72
2022/07/30 09:33:33;;;;;;;7.78;2.25;;;;;;;;;;5157301;27;20555;-73
2022/07/30 09:36:00;;;;;;;3.83;1.65;;;;;;;;;;5156507;27;20079;-73
2022/07/30 09:38:27;;;;;;;2.25;1.70;;;;;;;;;;5156433;27;20130;-73
2022/07/30 09:40:56;;;;;;;4.03;1.75;;;;;;;;;;5156413;27;20482;-73
2022/07/30 09:43:23;;;;;;;3.25;1.30;;;;;;;;;;5155658;27;20051;-73
2022/07/30 09:45:56;;;;;;;4.13;1.48;;;;;;;;;;5156377;27;20058;-73
2022/07/30 09:48:24;;;;;;;3.58;1.70;;;;;;;;;;5156213;27;20104;-71
2022/07/30 09:50:51;;;;;;;3.03;1.83;;;;;;;;;;5155664;27;20142;-71
2022/07/30 09:53:18;;;;;;;4.03;2.10;;;;;;;;;;5155843;27;20051;-71
2022/07/30 09:55:46;;;;;;;3.33;1.80;;;;;;;;;;5155007;27;20132;-71
2022/07/30 09:58:13;;;;;;;4.55;1.80;;;;;;;;;;5152292;27;20050;-71
2022/07/30 10:00:55;;;;;;;3.47;1.98;;;;;;;;;;5154642;27;20059;-70
2022/07/30 10:03:25;;;;;;;6.93;2.42;;;;;;;;;;5152229;27;21175;-73
2022/07/30 10:06:07;;;;;;;4.18;1.90;;;;;;;;;;5141636;27;20039;-73
2022/07/30 10:08:41;;;;;;;4.40;2.33;;;;;;;;;;5144273;27;20138;-73
2022/07/30 10:11:12;;;;;;;9.18;2.05;;;;;;;;;;5136514;27;20087;-72
2022/07/30 10:13:39;;;;;;;2.58;1.50;;;;;;;;;;5154388;27;20138;-73
2022/07/30 10:16:10;;;;;;;9.98;2.30;;;;;;;;;;5150022;27;20055;-72
2022/07/30 10:18:37;;;;;;;3.17;1.85;;;;;;;;;;5156259;27;20126;-73
2022/07/30 10:21:03;;;;;;;5.28;1.92;;;;;;;;;;5153261;27;20108;-72
2022/07/30 10:23:31;;;;;;;3.35;1.83;;;;;;;;;;5155941;27;20054;-73
2022/07/30 10:25:58;;;;;;;4.28;1.80;;;;;;;;;;5153059;27;20051;-72
2022/07/30 10:28:29;;;;;;;3.15;1.77;;;;;;;;;;5155942;27;20051;-72
2022/07/30 10:31:02;;;;;;;4.60;1.90;;;;;;;;;;5135261;27;20751;-73
2022/07/30 10:33:48;;;;;;;4.35;1.73;;;;;;;;;;5150814;27;20047;-70
2022/07/30 10:36:15;;;;;;;4.05;2.30;;;;;;;;;;5153522;27;20552;-73
2022/07/30 10:38:44;;;;;;;8.35;2.00;;;;;;;;;;5154327;27;20146;-71
2022/07/30 10:41:20;;;;;;;6.95;1.90;;;;;;;;;;5153747;27;20055;-71
2022/07/30 10:44:11;;;;;;;5.03;1.95;;;;;;;;;;5155308;27;20055;-74
2022/07/30 10:46:53;;;;;;;3.88;1.73;;;;;;;;;;5137279;27;20052;-76
2022/07/30 10:49:21;;;;;;;3.50;1.50;;;;;;;;;;5134669;27;20498;-72
2022/07/30 10:51:51;;;;;;;3.83;1.60;;;;;;;;;;5134060;27;20079;-70
2022/07/30 10:54:33;;;;;;;3.40;1.60;;;;;;;;;;5132701;27;20047;-70
2022/07/30 10:57:15;;;;;;;3.42;1.70;;;;;;;;;;5142956;27;20142;-70
2022/07/30 10:59:59;;;;;;;2.38;1.40;;;;;;;;;;5148860;27;20071;-71
2022/07/30 11:02:30;;;;;;;4.25;1.70;;;;;;;;;;5145627;27;20131;-70
2022/07/30 11:05:15;;;;;;;3.65;1.70;;;;;;;;;;5145046;27;20143;-69
2022/07/30 11:07:43;;;;;;;5.63;1.80;;;;;;;;;;5144955;27;20134;-69
2022/07/30 11:10:31;;;;;;;5.35;1.80;;;;;;;;;;5138253;27;20146;-69
2022/07/30 11:12:57;;;;;;;1.98;1.40;;;;;;;;;;5135935;27;20512;-68
2022/07/30 11:15:43;;;;;;;6.32;1.88;;;;;;;;;;5154482;27;20486;-70
2022/07/30 11:18:13;;;;;;;3.05;1.73;;;;;;;;;;5154475;27;20058;-69
2022/07/30 11:20:40;;;;;;;6.18;1.67;;;;;;;;;;5152123;27;20059;-70
2022/07/30 11:23:23;;;;;;;3.70;1.60;;;;;;;;;;5154018;27;20091;-69
2022/07/30 11:25:50;;;;;;;4.97;1.98;;;;;;;;;;5153583;27;20581;-67
2022/07/30 11:28:36;;;;;;;4.82;1.50;;;;;;;;;;5152014;27;20055;-72
2022/07/30 11:31:23;;;;;;;4.93;1.60;;;;;;;;;;5153616;27;20051;-68
2022/07/30 11:34:17;;;;;;;5.72;1.80;;;;;;;;;;5154156;27;20059;-69
2022/07/30 11:37:03;;;;;;;3.35;1.95;;;;;;;;;;5154360;27;20498;-68
2022/07/30 11:39:53;;;;;;;5.55;1.95;;;;;;;;;;5154363;27;20454;-68
2022/07/30 11:42:24;;;;;;;2.53;1.77;;;;;;;;;;5153271;27;20051;-69
2022/07/30 11:44:50;;;;;;;2.42;1.73;;;;;;;;;;5154234;27;20047;-68
2022/07/30 11:47:17;;;;;;;4.60;1.77;;;;;;;;;;5154422;27;20055;-69
2022/07/30 11:49:44;;;;;;;3.38;1.50;;;;;;;;;;5154298;27;20521;-71
2022/07/30 11:52:11;;;;;;;2.38;1.60;;;;;;;;;;5155675;27;20055;-71
2022/07/30 11:54:53;;;;;;;7.18;1.85;;;;;;;;;;5155750;27;20051;-71
2022/07/30 11:57:19;;;;;;;4.10;1.80;;;;;;;;;;5153620;27;20055;-70
2022/07/30 11:59:55;;;;;;;4.00;1.65;;;;;;;;;;5153021;27;20051;-69
2022/07/30 12:02:27;;;;;;;5.88;1.30;;;;;;;;;;5154597;27;20081;-70
2022/07/30 12:04:54;;;;;;;4.78;1.55;;;;;;;;;;5151518;27;20047;-69
2022/07/30 12:07:21;;;;;;;2.75;1.35;;;;;;;;;;5153229;27;20517;-70
2022/07/30 12:09:48;;;;;;;3.80;1.60;;;;;;;;;;5153749;27;20071;-69
2022/07/30 12:12:23;;;;;;;3.15;1.60;;;;;;;;;;5153415;27;20054;-70
2022/07/30 12:14:50;;;;;;;3.83;1.60;;;;;;;;;;5153586;27;20083;-69
2022/07/30 12:17:18;;;;;;;3.50;1.33;;;;;;;;;;5153879;27;20125;-69
2022/07/30 12:19:46;;;;;;;3.90;1.60;;;;;;;;;;5153200;27;20051;-69
2022/07/30 12:22:14;;;;;;;4.65;1.50;;;;;;;;;;5148775;27;20520;-70
2022/07/30 12:24:40;;;;;;;3.08;1.63;;;;;;;;;;5151871;27;20058;-69
2022/07/30 12:27:07;;;;;;;3.85;1.30;;;;;;;;;;5150570;27;20053;-69
2022/07/30 12:29:34;;;;;;;2.67;1.20;;;;;;;;;;5153139;27;20506;-70
2022/07/30 12:32:00;;;;;;;9.57;1.50;;;;;;;;;;5152705;27;20043;-69
2022/07/30 12:34:29;;;;;;;7.32;1.75;;;;;;;;;;5150108;27;20059;-68
2022/07/30 12:37:05;;;;;;;3.17;1.40;;;;;;;;;;5153710;27;20075;-69
2022/07/30 12:39:31;;;;;;;4.00;2.13;;;;;;;;;;5153898;27;20054;-70
2022/07/30 12:41:58;;;;;;;4.38;1.45;;;;;;;;;;5140894;27;20572;-68
2022/07/30 12:44:44;;;;;;;5.10;1.38;;;;;;;;;;5143631;27;20174;-69
2022/07/30 12:47:29;;;;;;;2.78;1.40;;;;;;;;;;5152883;27;20080;-68
2022/07/30 12:49:59;;;;;;;3.05;1.23;;;;;;;;;;5140849;27;20593;-69
2022/07/30 12:52:26;;;;;;;2.05;1.65;;;;;;;;;;5153016;27;20590;-70
2022/07/30 12:54:57;;;;;;;6.13;1.48;;;;;;;;;;5149189;27;20055;-70
2022/07/30 12:57:23;;;;;;;4.15;1.52;;;;;;;;;;5151879;27;20073;-70
2022/07/30 13:00:19;;;;;;;7.07;1.98;;;;;;;;;;5152024;27;20141;-71
2022/07/30 13:02:46;;;;;;;3.78;1.40;;;;;;;;;;5135891;27;20051;-75
2022/07/30 13:05:13;;;;;;;3.03;1.35;;;;;;;;;;5153173;27;20061;-74
2022/07/30 13:07:56;;;;;;;2.15;1.60;;;;;;;;;;5151726;27;20047;-75
2022/07/30 13:10:22;;;;;;;6.18;1.23;;;;;;;;;;5132173;27;20062;-73
2022/07/30 13:12:57;;;;;;;5.38;1.42;;;;;;;;;;5142351;27;20054;-74
2022/07/30 13:15:23;;;;;;;2.70;1.50;;;;;;;;;;5150453;27;20134;-72
2022/07/30 13:17:49;;;;;;;2.65;1.42;;;;;;;;;;5145206;27;20065;-74
2022/07/30 13:20:16;;;;;;;5.00;1.30;;;;;;;;;;5150724;27;20055;-73
2022/07/30 13:22:43;;;;;;;2.45;1.45;;;;;;;;;;5153491;27;20066;-74
2022/07/30 13:25:10;;;;;;;4.90;1.40;;;;;;;;;;5140951;27;20056;-71
2022/07/30 13:27:36;;;;;;;3.95;2.00;;;;;;;;;;5135275;27;20053;-72
2022/07/30 13:30:03;;;;;;;3.13;1.60;;;;;;;;;;5151089;27;20093;-74
2022/07/30 13:32:30;;;;;;;3.97;1.23;;;;;;;;;;5151224;27;20542;-73
2022/07/30 13:34:56;;;;;;;5.68;1.30;;;;;;;;;;5151559;27;20436;-72
2022/07/30 13:37:27;;;;;;;2.67;1.73;;;;;;;;;;5152449;27;20112;-72
2022/07/30 13:40:04;;;;;;;4.20;1.63;;;;;;;;;;5153287;27;20061;-72
2022/07/30 13:42:31;;;;;;;2.53;1.20;;;;;;;;;;5150308;27;20039;-73
2022/07/30 13:45:05;;;;;;;1.70;1.45;;;;;;;;;;5155560;27;20140;-72
2022/07/30 13:47:31;;;;;;;3.30;1.60;;;;;;;;;;5145092;27;20090;-72
2022/07/30 13:49:57;;;;;;;2.03;1.30;;;;;;;;;;5147473;27;20051;-72
2022/07/30 13:52:23;;;;;;;6.00;1.42;;;;;;;;;;5152345;27;20043;-73
2022/07/30 13:54:52;;;;;;;2.17;1.38;;;;;;;;;;5149544;27;20052;-73
2022/07/30 13:57:18;;;;;;;4.22;1.35;;;;;;;;;;5155514;27;20077;-72
2022/07/30 13:59:45;;;;;;;6.07;1.75;;;;;;;;;;5156397;27;20170;-72
2022/07/30 14:02:11;;;;;;;2.78;1.40;;;;;;;;;;5152903;27;20138;-72
2022/07/30 14:04:37;;;;;;;3.08;1.42;;;;;;;;;;5154089;27;20055;-74
2022/07/30 14:07:04;;;;;;;2.88;1.40;;;;;;;;;;5154923;27;20054;-72
2022/07/30 14:09:30;;;;;;;4.18;1.45;;;;;;;;;;5153645;27;20139;-70
2022/07/30 14:11:57;;;;;;;2.45;1.20;;;;;;;;;;5148205;27;20057;-72
2022/07/30 14:14:23;;;;;;;9.02;1.35;;;;;;;;;;5145102;27;20500;-71
2022/07/30 14:16:51;;;;;;;2.42;1.15;;;;;;;;;;5152153;27;20051;-71
2022/07/30 14:19:24;;;;;;;4.25;1.75;;;;;;;;;;5148315;27;20062;-71
2022/07/30 14:21:51;;;;;;;3.53;1.60;;;;;;;;;;5155248;27;20142;-71
2022/07/30 14:24:18;;;;;;;16.92;1.67;;;;;;;;;;5156138;27;20147;-71
2022/07/30 14:26:44;;;;;;;6.32;1.58;;;;;;;;;;5142429;27;20572;-72
2022/07/30 14:29:11;;;;;;;5.35;1.33;;;;;;;;;;5134547;27;20475;-74
2022/07/30 14:31:37;;;;;;;1.98;1.25;;;;;;;;;;5134779;27;20269;-73
2022/07/30 14:34:03;;;;;;;8.68;1.75;;;;;;;;;;5133543;27;20075;-73
2022/07/30 14:36:30;;;;;;;2.17;1.30;;;;;;;;;;5137952;27;20073;-73
2022/07/30 14:38:56;;;;;;;3.80;1.40;;;;;;;;;;5152340;27;20051;-74
2022/07/30 14:41:23;;;;;;;3.53;1.52;;;;;;;;;;5154390;27;20061;-73
2022/07/30 14:43:50;;;;;;;3.17;1.42;;;;;;;;;;5150385;27;20048;-74
2022/07/30 14:46:17;;;;;;;2.92;1.20;;;;;;;;;;5153333;27;20151;-75
2022/07/30 14:48:43;;;;;;;1.98;1.20;;;;;;;;;;5154289;27;20052;-73
2022/07/30 14:51:09;;;;;;;3.53;1.45;;;;;;;;;;5152786;27;20062;-73